createdAt,value
2022-08-22T00:06:09.202Z,62.9
2022-08-22T00:36:26.306Z,64.8
2022-08-22T01:06:45.102Z,66.30001
2022-08-22T01:37:03.365Z,67.6
2022-08-22T02:37:38.393Z,71.9
2022-08-22T03:07:55.463Z,70.2
2022-08-22T03:38:13.586Z,71.4
2022-08-22T04:08:34.769Z,74.1
2022-08-22T04:38:51.579Z,75.6
2022-08-22T05:09:14.132Z,77.9
2022-08-22T05:39:35.898Z,70.6
2022-08-22T06:09:56.636Z,67.7
2022-08-22T06:40:19.967Z,59.4
2022-08-22T07:10:43.228Z,57.5
2022-08-22T07:41:05.319Z,58.3
2022-08-22T08:11:24.723Z,54
2022-08-22T08:41:59.519Z,45.4
2022-08-22T09:12:16.709Z,43.7
2022-08-22T09:42:45.027Z,41.5
2022-08-22T10:13:10.372Z,40.8
2022-08-22T10:43:32.247Z,36
2022-08-22T11:13:52.957Z,33.9
2022-08-22T11:44:14.383Z,33.3
2022-08-22T12:14:21.340Z,38.4
2022-08-22T12:44:30.866Z,39.3
2022-08-22T13:14:59.788Z,39.8
2022-08-22T13:45:29.694Z,36.5
2022-08-22T14:45:54.265Z,37.5
2022-08-22T15:16:09.441Z,39.2
2022-08-22T15:46:26.079Z,39.2
2022-08-22T16:16:43.304Z,39.3
2022-08-22T16:47:00.490Z,38.9
2022-08-22T17:17:18.220Z,40.1
2022-08-22T17:47:34.409Z,42.2
2022-08-22T18:48:08.529Z,42.9
2022-08-22T19:18:27.338Z,44.5
2022-08-22T19:48:44.551Z,44.9
2022-08-22T20:19:07.111Z,46.2
2022-08-22T20:49:22.569Z,49.8
2022-08-22T21:19:40.182Z,52.9
2022-08-22T21:49:57.999Z,52.5
2022-08-22T22:20:14.523Z,52.6
2022-08-22T22:50:35.193Z,51.2
2022-08-22T23:20:52.524Z,52
2022-08-22T23:51:08.713Z,53.2
